NCAR-RAP Real-Time Weather Data

Output produced by METARs form (12 August 2020  18:29 UTC)
found at http://weather.rap.ucar.edu/surface/
 
KRDU 121751Z COR 16006KT 10SM SCT040 SCT250 32/22 A3002 RMK AO2 SLP159 CB DSNT NW-N T03220222 10328 20250 58012
KRDU 121651Z 18009KT 10SM SCT035TCU SCT250 32/23 A3004 RMK AO2 SLP165 TCU W-N-NE T03170228
KRDU 121551Z 13007KT 10SM SCT028TCU SCT250 31/23 A3004 RMK AO2 SLP168 TCU ALQDS T03110233
KRDU 121451Z 14005KT 10SM SCT025TCU SCT250 29/24 A3005 RMK AO2 SLP171 TCU ALQDS T02940239 51002
KRDU 121351Z 09003KT 10SM FEW020 FEW250 29/24 A3005 RMK AO2 SLP170 T02890239
KRDU 121251Z VRB03KT 10SM FEW250 27/24 A3005 RMK AO2 SLP170 T02670239
KRDU 121151Z 12004KT 10SM FEW250 25/23 A3005 RMK AO2 SLP169 T02500233 10256 20222 53019
KRDU 121051Z 14003KT 8SM FEW150 FEW250 23/22 A3002 RMK AO2 SLP161 T02330222
KRDU 120951Z 00000KT 10SM FEW250 23/22 A3000 RMK AO2 SLP153 T02280222 $
KRDU 120851Z 15004KT 10SM CLR 24/22 A2999 RMK AO2 SLP150 T02390222 55006 $
KRDU 120751Z 00000KT 10SM CLR 23/22 A2999 RMK AO2 SLP148 T02330222 $
KRDU 120651Z 00000KT 10SM CLR 25/22 A3000 RMK AO2 SLP151 T02500222 $
KRDU 120551Z 22004KT 10SM FEW070 FEW120 FEW250 25/22 A3001 RMK AO2 SLP156 T02500222 10289 20244 51003
KRDU 120451Z 20007KT 10SM FEW050 FEW090 FEW250 26/22 A3001 RMK AO2 SLP156 T02560222 403220217
KRDU 120351Z 17004KT 10SM FEW050 FEW090 SCT250 26/22 A3001 RMK AO2 SLP155 T02610222
KRDU 120251Z 18003KT 10SM FEW045 FEW100 SCT250 27/22 A3000 RMK AO2 SLP153 T02670222 53014
KRDU 120151Z 00000KT 10SM SCT250 27/23 A2999 RMK AO2 SLP150 T02670228
KRDU 120051Z 16004KT 10SM FEW036 FEW180 BKN250 28/23 A2997 RMK AO2 SLP141 CB DSNT W T02780228
KRDU 112351Z 17006KT 10SM FEW036CB FEW180 SCT250 29/23 A2996 RMK AO2 SLP138 CB NW MOV SLWLY SE AND DSNT W TCU W T02890228 10322 20289 53001
KRDU 112251Z 16006KT 10SM FEW036CB FEW180 BKN250 31/23 A2994 RMK AO2 SLP132 CB NW MOV SLWLY SE TCU NW T03060228
KRDU 112151Z 16006KT 10SM SCT036TCU SCT180 BKN250 31/22 A2995 RMK AO2 SLP136 TCU NW-NE T03110222
KRDU 112051Z 16006KT 10SM SCT036TCU SCT180 SCT250 32/23 A2996 RMK AO2 SLP138 CB DSNT NE TCU NW AND DSNT SW-W T03170228 56012
KRDU 111951Z 15008KT 10SM SCT036TCU SCT180 SCT250 32/23 A2996 RMK AO2 SLP139 CB DSNT SE AND NW TCU E-SE AND NW-N T03220233
KRDU 111851Z 16004KT 10SM SCT036 SCT180 SCT250 31/22 A2998 RMK AO2 SLP145 T03110222
KRDU 111751Z VRB03KT 10SM SCT036 SCT180 SCT250 32/23 A2999 RMK AO2 SLP150 T03170228 10317 20233 58011
KRDU 111651Z 22006KT 10SM SCT031 SCT180 SCT250 30/23 A3000 RMK AO2 SLP154 T03000228
KRDU 111551Z 17004KT 10SM SCT027 SCT180 SCT250 29/23 A3001 RMK AO2 SLP158 T02940228
KRDU 111451Z 00000KT 10SM SCT020 SCT180 SCT250 28/23 A3002 RMK AO2 SLP161 T02830228 51010
KRDU 111351Z 20004KT 10SM SCT015 SCT250 27/23 A3002 RMK AO2 SLP160 T02670228
KRDU 111251Z 26004KT 10SM FEW012 FEW250 25/22 A3001 RMK AO2 SLP157 T02500222
KRDU 111151Z 19003KT 10SM FEW010 FEW120 FEW250 23/22 A2999 RMK AO2 SLP151 T02330217 10233 20217 51008
KRDU 111051Z 19003KT 10SM FEW120 FEW150 FEW250 22/21 A2999 RMK AO2 SLP150 T02220211 $
KRDU 111040Z 00000KT 10SM FEW003 FEW120 FEW150 22/21 A2999 RMK AO2 T02220211 $
KRDU 110951Z 24003KT 10SM FEW120 FEW150 22/21 A2998 RMK AO2 SLP147 T02170211 $
KRDU 110851Z 00000KT 10SM BKN150 23/21 A2997 RMK AO2 SLP142 T02280211 55015 $
KRDU 110751Z 00000KT 10SM FEW110 23/21 A2996 RMK AO2 SLP141 T02280211
KRDU 110651Z 24004KT 10SM FEW050 FEW065 FEW110 22/21 A3001 RMK AO2 SLP156 T02220211
KRDU 110551Z 22007KT 10SM FEW038 FEW060 FEW090 23/21 A3001 RMK AO2 SLP157 T02330211 10267 20228 50005
KRDU 110451Z 17004KT 10SM FEW047 FEW060 BKN120 BKN250 23/21 A3003 RMK AO2 SLP164 T02330211 403170217
KRDU 110351Z 18004KT 10SM FEW040 FEW120 FEW250 24/21 A3002 RMK AO2 SLP160 T02390211
KRDU 110251Z 17005KT 10SM FEW120 SCT250 24/21 A3000 RMK AO2 SLP152 T02440211 56003
KRDU 110151Z 17003KT 10SM SCT120 25/22 A3000 RMK AO2 SLP152 T02500222
KRDU 110051Z 19005KT 10SM BKN080 26/22 A2998 RMK AO2 SLP148 T02560217
KRDU 102351Z 16008KT 10SM FEW031 SCT045 BKN080 27/22 A3000 RMK AO2 SLP156 T02670222 10317 20261 53004
KRDU 102251Z 12005KT 10SM FEW031 SCT045 BKN080 28/23 A3000 RMK AO2 SLP154 T02780228
KRDU 102151Z 11005KT 10SM BKN095 29/23 A2999 RMK AO2 SLP150 TCU DSNT SE T02940233
KRDU 102051Z 12008KT 10SM SCT045 SCT120 31/23 A2999 RMK AO2 SLP151 TCU DSNT SE T03060233 56023
KRDU 101951Z 13005KT 10SM BKN045 31/24 A3001 RMK AO2 SLP155 T03110244
KRDU 101851Z COR 06014KT 10SM BKN037 OVC045 27/21 A3002 RMK AO2 SLP162 T02720211